Latest Weather Observations for Goulburn Airport

IDN60901

Issued at 6:45 pm EST Wednesday 27 August 2014 (issued every 10 minutes, with the page automatically refreshed every 10 minutes)

About weather observations | Map of Canberra area stations | Latest observations for Canberra area | Other Formats
Station Details ID: 070330 Name: GOULBURN AIRPORT AWS Lat: -34.81 Lon: 149.73 Height: 640.0 m
Data from the previous 72 hours. | See also: Recent months at Goulburn Airport
Date/Time
EST
Tmp

°C
App
Tmp
°C
Dew
Point
°C
Rel
Hum
%
Delta-T

°C
Wind Press
QNH
hPa
Press
MSL
hPa
Rain
since
9 am
mm
Dir
 
Spd
km/h
Gust
km/h
Spd
kts
Gust
kts
27/06:30pm 7.4 3.0 4.5 82 1.3 SE 17 19 9 10 1027.5 - 0.0
27/06:00pm 8.5 4.5 4.7 77 1.7 SE 15 20 8 11 1027.2 1028.0 0.0
27/05:30pm 10.0 6.2 5.8 75 2.0 SE 15 19 8 10 1026.8 - 0.0
27/05:00pm 10.8 6.1 5.3 69 2.6 SE 19 24 10 13 1026.7 - 0.0
27/04:30pm 10.8 6.5 5.1 68 2.7 SE 17 22 9 12 1026.4 - 0.0
27/04:00pm 11.9 5.9 5.3 64 3.2 SSE 26 32 14 17 1026.3 - 0.0
27/03:30pm 10.7 4.0 5.7 71 2.4 SE 30 41 16 22 1026.2 - 0.0
27/03:00pm 12.5 6.0 4.5 58 3.8 SSE 28 33 15 18 1025.9 1026.7 0.0
27/02:30pm 13.0 8.2 5.4 60 3.7 SE 20 32 11 17 1025.9 - 0.0
27/02:00pm 12.9 7.6 3.0 51 4.5 SE 20 33 11 18 1025.8 - 0.0
27/01:30pm 13.6 7.8 4.2 53 4.5 SE 24 35 13 19 1025.8 - 0.0
27/01:00pm 13.8 8.3 5.9 59 3.9 SE 24 37 13 20 1026.0 - 0.0
27/12:30pm 11.8 6.6 5.4 65 3.1 SE 22 33 12 18 1026.3 - 0.0
27/12:00pm 11.8 5.6 4.5 61 3.4 SSE 26 33 14 18 1026.9 1027.7 0.0
27/11:30am 11.7 5.6 4.9 63 3.2 SE 26 33 14 18 1027.3 - 0.0
27/11:00am 10.7 4.6 5.0 68 2.7 SE 26 35 14 19 1027.6 - 0.0
27/10:30am 12.2 7.3 4.9 61 3.5 ESE 20 33 11 18 1027.8 - 0.0
27/10:00am 10.5 4.8 5.1 69 2.5 ESE 24 33 13 18 1027.8 - 0.0
27/09:43am 11.1 5.5 5.6 69 2.6 ESE 24 30 13 16 1027.7 - 0.0
27/09:30am 10.3 4.0 5.5 72 2.3 SE 28 37 15 20 1027.7 - 0.0
27/09:02am 9.8 5.3 6.9 82 1.4 ESE 20 32 11 17 1027.7 - 0.0
27/09:01am 9.8 4.9 6.9 82 1.4 SE 22 32 12 17 1027.7 - 0.0
27/09:00am 10.0 5.1 7.1 82 1.4 SE 22 32 12 17 1027.7 1028.6 7.2
27/08:30am 8.7 3.7 6.3 85 1.1 SE 22 32 12 17 1027.4 - 7.2
27/08:19am 8.7 4.2 6.8 88 0.9 ESE 20 28 11 15 1027.3 - 7.2
27/08:00am 7.9 3.6 7.1 95 0.4 SE 19 24 10 13 1027.1 - 7.2
27/07:30am 6.1 3.4 5.8 98 0.1 S 9 11 5 6 1027.1 - 7.2
27/07:12am 4.1 1.6 3.7 97 0.2 S 6 7 3 4 1027.2 - 7.2
27/07:00am 4.3 1.8 3.9 97 0.2 SSE 6 7 3 4 1027.2 - 7.2
27/06:32am 4.1 1.0 3.5 96 0.3 SSE 9 13 5 7 1026.8 - 7.2
27/06:30am 4.2 0.7 3.6 96 0.3 SSE 11 13 6 7 1026.8 - 7.2
27/06:00am 4.5 1.5 3.9 96 0.3 SSE 9 11 5 6 1026.5 1027.4 7.2
27/05:30am 4.9 1.2 4.3 96 0.3 SE 13 15 7 8 1026.3 - 7.2
27/05:00am 5.3 2.4 4.6 95 0.3 SE 9 13 5 7 1026.2 - 7.0
27/04:37am 6.0 2.1 5.3 95 0.3 SE 15 19 8 10 1026.0 - 7.0
27/04:30am 6.1 2.2 5.2 94 0.4 SE 15 20 8 11 1025.9 - 7.0
27/04:00am 7.2 2.6 6.3 94 0.4 SE 20 26 11 14 1026.0 - 7.0
27/03:30am 7.5 3.1 6.6 94 0.4 SE 19 24 10 13 1026.0 - 7.0
27/03:00am 7.4 3.8 6.7 95 0.3 SE 15 19 8 10 1026.1 1027.0 7.0
27/02:33am 7.5 2.9 6.6 94 0.4 SE 20 28 11 15 1026.1 - 7.0
27/02:30am 7.5 2.9 6.6 94 0.4 SE 20 28 11 15 1026.1 - 7.0
27/02:27am 7.5 2.9 6.6 94 0.4 SE 20 28 11 15 1026.1 - 7.0
27/02:00am 7.2 3.2 6.5 95 0.3 SE 17 22 9 12 1026.2 - 7.0
27/01:30am 7.5 3.1 6.4 93 0.5 SSE 19 22 10 12 1026.4 - 7.0
27/01:00am 8.4 4.2 7.3 93 0.5 SE 19 28 10 15 1026.4 - 7.0
27/12:30am 8.4 4.2 7.5 94 0.4 SE 19 26 10 14 1026.5 - 7.0
27/12:00am 8.2 4.3 7.1 93 0.5 SE 17 22 9 12 1026.5 1027.4 7.0
 
Date/Time
EST
Tmp

°C
App
Tmp
°C
Dew
Point
°C
Rel
Hum
%
Delta-T

°C
Wind Press
QNH
hPa
Press
MSL
hPa
Rain
since
9 am
mm
Dir
 
Spd
km/h
Gust
km/h
Spd
kts
Gust
kts
26/11:30pm 8.5 4.3 7.4 93 0.5 SE 19 24 10 13 1026.7 - 7.0
26/11:26pm 8.5 4.1 7.4 93 0.5 ESE 20 30 11 16 1026.5 - 7.0
26/11:24pm 8.5 3.7 7.4 93 0.5 ESE 22 35 12 19 1026.5 - 7.0
26/11:00pm 8.7 4.5 7.6 93 0.5 SE 19 26 10 14 1026.7 - 7.0
26/10:30pm 8.7 5.3 7.8 94 0.4 SE 15 20 8 11 1026.5 - 7.0
26/10:00pm 8.6 5.2 7.7 94 0.4 ESE 15 20 8 11 1026.5 - 7.0
26/09:51pm 8.7 5.3 7.8 94 0.4 ESE 15 20 8 11 1026.4 - 7.0
26/09:30pm 8.9 4.8 8.0 94 0.4 SE 19 24 10 13 1026.7 - 7.0
26/09:07pm 8.8 4.5 7.9 94 0.4 SE 20 26 11 14 1026.7 - 7.0
26/09:00pm 8.8 4.5 7.7 93 0.5 SE 20 32 11 17 1026.5 1027.4 7.0
26/08:30pm 9.1 5.4 8.0 93 0.5 SE 17 24 9 13 1026.7 - 7.0
26/08:00pm 9.0 4.3 7.8 92 0.6 ESE 22 32 12 17 1026.3 - 7.0
26/07:35pm 8.6 3.8 7.4 92 0.6 E 22 32 12 17 1026.2 - 7.0
26/07:30pm 8.8 3.6 7.4 91 0.7 E 24 33 13 18 1026.1 - 7.0
26/07:00pm 9.2 4.7 8.4 95 0.4 ESE 22 33 12 18 1025.8 - 7.0
26/06:30pm 9.6 5.5 8.5 93 0.6 ESE 20 32 11 17 1025.5 - 5.8
26/06:00pm 9.6 5.5 8.7 94 0.5 ESE 20 28 11 15 1025.2 1026.0 5.8
26/05:30pm 9.6 6.1 8.7 94 0.5 SE 17 22 9 12 1025.1 - 5.0
26/05:00pm 9.5 5.5 8.4 93 0.6 SE 19 24 10 13 1025.0 - 5.0
26/04:30pm 9.8 5.7 8.7 93 0.6 SE 20 26 11 14 1025.0 - 5.0
26/04:00pm 9.8 5.7 8.6 92 0.6 SE 20 26 11 14 1025.0 - 5.0
26/03:49pm 9.8 5.9 8.6 92 0.6 SE 19 26 10 14 1025.0 - 5.0
26/03:30pm 9.8 5.6 8.4 91 0.7 ESE 20 28 11 15 1024.8 - 5.0
26/03:00pm 9.9 5.4 8.5 91 0.7 ESE 22 32 12 17 1024.8 1025.7 5.0
26/02:45pm 10.2 4.2 8.6 90 0.8 ESE 30 37 16 20 1024.7 - 4.8
26/02:30pm 10.0 4.0 8.6 91 0.7 ESE 30 43 16 23 1024.6 - 4.8
26/02:00pm 9.9 5.4 8.5 91 0.7 ESE 22 35 12 19 1024.7 - 4.4
26/01:30pm 9.4 3.6 8.0 91 0.7 ESE 28 41 15 22 1024.8 - 4.0
26/01:00pm 9.8 6.3 8.6 92 0.6 E 17 24 9 13 1024.8 - 3.0
26/12:53pm 9.7 5.5 8.3 91 0.7 E 20 30 11 16 1024.8 - 2.8
26/12:47pm 9.8 4.9 8.4 91 0.7 E 24 32 13 17 1024.8 - 2.8
26/12:30pm 9.8 3.8 8.6 92 0.6 ESE 30 41 16 22 1025.0 - 2.6
26/12:11pm 9.7 4.4 8.5 92 0.6 ESE 26 37 14 20 1025.0 - 2.0
26/12:00pm 10.1 4.9 8.7 91 0.7 ESE 26 33 14 18 1025.0 1025.8 1.4
26/11:44am 10.1 4.8 8.4 89 0.9 ESE 26 37 14 20 1025.1 - 1.4
26/11:30am 10.3 5.5 8.9 91 0.7 ESE 24 35 13 19 1025.2 - 1.2
26/11:25am 10.2 5.7 8.6 90 0.8 ESE 22 35 12 19 1025.2 - 1.2
26/11:24am 10.2 5.8 8.8 91 0.7 ESE 22 30 12 16 1025.3 - 1.2
26/11:14am 10.3 5.5 8.9 91 0.7 ESE 24 30 13 16 1025.3 - 1.0
26/11:00am 10.1 5.6 8.5 90 0.8 E 22 32 12 17 1025.4 - 0.8
26/10:58am 10.0 5.1 8.4 90 0.8 E 24 32 13 17 1025.4 - 0.8
26/10:30am 9.8 5.0 9.0 95 0.4 SE 24 32 13 17 1025.5 - 0.8
26/10:00am 9.4 5.2 8.3 93 0.6 SE 20 28 11 15 1025.4 - 0.0
26/09:30am 9.7 4.8 8.3 91 0.7 SE 24 35 13 19 1025.2 - 0.0
26/09:00am 9.3 4.3 8.2 93 0.5 SE 24 33 13 18 1025.1 1025.9 39.0
26/08:30am 8.7 3.7 7.9 95 0.4 SE 24 33 13 18 1025.0 - 39.0
26/08:00am 8.5 3.0 7.6 94 0.4 SE 26 35 14 19 1024.6 - 39.0
26/07:30am 8.5 3.7 7.4 93 0.5 SE 22 30 12 16 1024.3 - 39.0
26/07:00am 8.2 2.6 7.3 94 0.4 SE 26 35 14 19 1024.1 - 39.0
26/06:30am 7.9 2.7 7.1 95 0.4 SE 24 30 13 16 1023.8 - 38.8
26/06:00am 8.1 3.2 7.0 93 0.5 SE 22 30 12 16 1023.6 1024.4 38.8
26/05:30am 8.1 3.7 7.2 94 0.4 SE 20 26 11 14 1023.4 - 38.8
26/05:00am 8.2 3.3 7.1 93 0.5 ESE 22 30 12 16 1023.4 - 38.8
26/04:30am 8.3 4.5 7.5 95 0.4 SE 17 24 9 13 1023.4 - 38.8
26/04:00am 8.5 3.5 7.9 96 0.3 ESE 24 33 13 18 1023.5 - 38.8
26/03:30am 8.3 5.3 7.9 97 0.2 SSE 13 19 7 10 1023.5 - 38.8
26/03:00am 8.3 6.1 7.9 97 0.2 SE 9 13 5 7 1023.5 1024.3 37.4
26/02:30am 8.3 5.3 7.9 97 0.2 SSE 13 19 7 10 1023.5 - 37.0
26/02:00am 8.2 4.8 7.8 97 0.2 S 15 20 8 11 1023.6 - 36.8
26/01:53am 8.2 4.8 7.8 97 0.2 SSE 15 20 8 11 1023.6 - 36.8
26/01:49am 8.2 4.8 7.8 97 0.2 SSE 15 19 8 10 1023.7 - 36.8
26/01:30am 8.1 5.1 7.7 97 0.2 SSE 13 17 7 9 1023.8 - 36.8
26/01:00am 8.1 4.7 7.7 97 0.2 S 15 19 8 10 1024.0 - 36.8
26/12:30am 8.1 4.7 7.7 97 0.2 S 15 17 8 9 1024.1 - 36.4
26/12:00am 8.0 4.6 7.6 97 0.2 SSW 15 19 8 10 1024.2 1025.0 36.2
 
Date/Time
EST
Tmp

°C
App
Tmp
°C
Dew
Point
°C
Rel
Hum
%
Delta-T

°C
Wind Press
QNH
hPa
Press
MSL
hPa
Rain
since
9 am
mm
Dir
 
Spd
km/h
Gust
km/h
Spd
kts
Gust
kts
25/11:55pm 8.0 4.6 7.6 97 0.2 SSW 15 19 8 10 1024.2 - 36.0
25/11:30pm 8.2 4.1 7.8 97 0.2 S 19 22 10 12 1024.3 - 35.6
25/11:00pm 8.4 5.5 8.0 97 0.2 SE 13 17 7 9 1024.3 - 35.0
25/10:38pm 8.1 5.9 7.7 97 0.2 S 9 13 5 7 1024.4 - 34.6
25/10:30pm 7.7 5.0 7.3 97 0.2 SSW 11 13 6 7 1024.4 - 34.6
25/10:00pm 7.7 4.6 7.3 97 0.2 SSW 13 15 7 8 1024.7 - 34.4
25/09:57pm 7.7 4.6 7.3 97 0.2 SSW 13 15 7 8 1024.7 - 34.4
25/09:56pm 7.8 4.7 7.4 97 0.2 SSW 13 17 7 9 1024.7 - 34.4
25/09:30pm 8.1 4.7 7.5 96 0.3 SSW 15 19 8 10 1025.0 - 34.2
25/09:00pm 8.0 6.0 7.2 95 0.4 WNW 7 13 4 7 1025.1 1025.9 31.6
25/08:58pm 8.0 6.0 7.2 95 0.4 NW 7 13 4 7 1025.1 - 31.2
25/08:30pm 8.6 5.2 7.8 95 0.4 SE 15 19 8 10 1025.0 - 29.8
25/08:00pm 8.6 6.4 7.8 95 0.4 SE 9 13 5 7 1024.7 - 28.8
25/07:30pm 6.9 4.2 5.8 93 0.5 SW 9 11 5 6 1024.7 - 28.8
25/07:00pm 7.6 4.4 6.9 95 0.3 S 13 17 7 9 1024.5 - 28.8
25/06:30pm 7.1 4.2 6.4 95 0.3 S 11 15 6 8 1024.4 - 28.8
25/06:00pm 6.7 2.8 5.5 92 0.6 SSW 15 17 8 9 1023.8 1024.6 28.8
25/05:30pm 8.6 5.8 6.9 89 0.8 SE 11 17 6 9 1023.4 - 28.8
25/05:22pm 8.7 4.7 6.8 88 0.9 SE 17 26 9 14 1023.4 - 28.8
25/05:00pm 7.9 4.2 6.4 90 0.7 S 15 19 8 10 1023.4 - 28.6
25/04:30pm 7.5 1.6 6.0 90 0.7 SW 26 33 14 18 1023.0 - 27.8
25/04:00pm 6.3 0.7 5.3 93 0.5 SW 24 30 13 16 1022.7 - 25.4
25/03:30pm 9.4 6.7 5.6 77 1.8 SSE 9 17 5 9 1022.8 - 10.0
25/03:00pm 13.1 8.7 6.7 65 3.2 WSW 19 22 10 12 1022.0 1022.7 0.0
25/02:30pm 14.2 11.5 5.6 56 4.2 SE 9 13 5 7 1022.1 - 0.0
25/02:00pm 15.0 11.7 6.3 56 4.4 E 13 19 7 10 1022.4 - 0.0
25/01:30pm 14.9 12.6 4.9 51 4.9 E 6 9 3 5 1022.7 - 0.0
25/01:00pm 15.0 12.9 6.0 55 4.5 NNE 6 9 3 5 1023.3 - 0.0
25/12:30pm 14.7 13.5 6.3 57 4.2 N 2 9 1 5 1023.6 - 0.0
25/12:00pm 14.0 11.5 6.4 60 3.8 N 9 17 5 9 1024.2 1025.0 0.0
25/11:30am 14.2 11.2 6.1 58 4.0 NNW 11 17 6 9 1024.7 - 0.0
25/11:00am 13.9 11.8 6.5 61 3.7 WNW 7 13 4 7 1025.1 - 0.0
25/10:30am 12.8 10.9 6.8 67 3.0 NNW 6 9 3 5 1025.5 - 0.0
25/10:00am 11.4 9.4 7.1 75 2.1 N 7 9 4 5 1025.8 - 0.0
25/09:30am 9.8 8.0 7.1 83 1.3 N 6 9 3 5 1025.9 - 0.0
25/09:00am 8.0 5.9 6.6 91 0.7 NE 7 9 4 5 1026.0 1026.8 0.0
25/08:30am 6.5 5.6 6.2 98 0.1 CALM 0 0 0 0 1026.1 - 0.0
25/08:00am 4.6 3.3 4.3 98 0.1 CALM 0 4 0 2 1026.1 - 0.0
25/07:30am 2.6 1.0 2.3 98 0.1 CALM 0 0 0 0 1025.9 - 0.0
25/07:11am 0.4 -1.6 0.0 97 0.2 CALM 0 0 0 0 1025.9 - 0.0
25/07:00am -0.1 -2.2 -0.5 97 0.1 CALM 0 0 0 0 1025.8 - 0.0
25/06:30am -0.3 -2.4 -0.7 97 0.1 CALM 0 0 0 0 1025.6 - 0.0
25/06:00am -0.4 -2.5 -0.8 97 0.1 CALM 0 0 0 0 1025.3 1026.1 0.0
25/05:55am -0.4 -2.5 -0.8 97 0.1 CALM 0 0 0 0 1025.2 - 0.0
25/05:30am -0.4 -2.5 -0.8 97 0.1 CALM 0 0 0 0 1025.1 - 0.0
25/05:00am -0.2 -2.3 -0.6 97 0.1 CALM 0 0 0 0 1024.8 - 0.0
25/04:48am -0.3 -2.4 -0.7 97 0.1 CALM 0 0 0 0 1024.7 - 0.0
25/04:30am 0.1 -1.9 -0.3 97 0.2 CALM 0 0 0 0 1024.6 - 0.0
25/04:00am 0.4 -1.6 0.0 97 0.2 CALM 0 0 0 0 1024.6 - 0.0
25/03:45am 0.5 -2.6 0.1 97 0.2 W 6 7 3 4 1024.7 - 0.0
25/03:30am 0.6 -1.7 0.2 97 0.2 ENE 2 7 1 4 1024.7 - 0.0
25/03:00am 1.1 -0.8 0.7 97 0.2 CALM 0 0 0 0 1024.8 1025.7 0.0
25/02:30am 1.3 -0.5 0.9 97 0.2 CALM 0 0 0 0 1025.1 - 0.0
25/02:21am 1.5 -0.3 1.1 97 0.2 CALM 0 0 0 0 1025.2 - 0.0
25/02:00am 1.4 -0.5 0.8 96 0.2 CALM 0 0 0 0 1025.5 - 0.0
25/01:30am 2.6 1.0 2.2 97 0.2 CALM 0 0 0 0 1025.8 - 0.0
25/01:00am 2.5 -0.3 2.1 97 0.2 E 6 7 3 4 1026.1 - 0.0
25/12:30am 2.6 -0.4 2.0 96 0.2 S 7 9 4 5 1026.4 - 0.0
25/12:00am 2.2 0.1 1.5 95 0.3 SE 2 9 1 5 1026.7 1027.5 0.0
 
Date/Time
EST
Tmp

°C
App
Tmp
°C
Dew
Point
°C
Rel
Hum
%
Delta-T

°C
Wind Press
QNH
hPa
Press
MSL
hPa
Rain
since
9 am
mm
Dir
 
Spd
km/h
Gust
km/h
Spd
kts
Gust
kts
24/11:30pm 3.6 2.1 2.9 95 0.3 CALM 0 0 0 0 1026.8 - 0.0
24/11:00pm 4.0 2.6 3.3 95 0.3 CALM 0 6 0 3 1026.8 - 0.0
24/10:30pm 4.0 1.4 3.1 94 0.4 SE 6 7 3 4 1026.9 - 0.0
24/10:00pm 4.7 2.9 3.7 93 0.4 SE 2 7 1 4 1027.0 - 0.0
24/09:30pm 6.1 5.0 4.9 92 0.5 CALM 0 0 0 0 1027.0 - 0.0
24/09:00pm 6.9 6.0 6.2 95 0.3 CALM 0 0 0 0 1026.8 1027.6 0.0
24/08:30pm 5.6 4.3 3.9 89 0.7 CALM 0 0 0 0 1026.7 - 0.0
24/08:00pm 8.1 7.3 6.4 89 0.8 CALM 0 0 0 0 1026.7 - 0.0
24/07:30pm 8.1 6.0 5.7 85 1.1 N 6 9 3 5 1026.4 - 0.0
24/07:00pm 8.0 5.6 5.3 83 1.3 N 7 7 4 4 1026.2 - 0.0

Latest Capital City Observations: Canberra | Sydney | Melbourne | Brisbane | Adelaide | Perth | Hobart | Darwin

Other Formats:

Comma delimited format used in spreadsheet applications
http://www.bom.gov.au/fwo/IDN60903/IDN60903.95716.axf

JavaScript Object Notation format (JSON) in row-major order
http://www.bom.gov.au/fwo/IDN60903/IDN60903.95716.json